Time;durP1;ratioP1;P1;durP2;ratioP2;P2;SDS_P1;SDS_P2;PMS_P1;PMS_P2;Temp;Humidity;BMP_temperature;BMP_pressure;BME280_temperature;BME280_humidity;BME280_pressure;Samples;Min_cycle;Max_cycle;Signal;HPM_P1;HPM_P2
2023/03/22 00:00:45;;;;;;;0.47;0.30;;;;;;;11.20;96.48;97953.66;5012559;28;20045;-43
2023/03/22 00:03:12;;;;;;;0.57;0.30;;;;;;;11.22;96.21;97970.69;4996735;28;20132;-43
2023/03/22 00:05:39;;;;;;;0.60;0.30;;;;;;;11.24;96.26;97948.88;5010410;28;20145;-47
2023/03/22 00:08:07;;;;;;;0.55;0.32;;;;;;;11.25;96.17;97953.19;5009947;28;20058;-44
2023/03/22 00:10:36;;;;;;;0.90;0.20;;;;;;;11.24;96.15;97951.66;5004655;28;20038;-44
2023/03/22 00:13:06;;;;;;;1.50;0.17;;;;;;;11.21;96.18;97944.16;5008292;28;20084;-43
2023/03/22 00:15:33;;;;;;;0.77;0.40;;;;;;;11.19;96.40;97948.56;5008638;28;20413;-45
2023/03/22 00:18:04;;;;;;;0.17;0.15;;;;;;;11.15;96.47;97948.59;5008281;28;20060;-43
2023/03/22 00:20:32;;;;;;;0.40;0.20;;;;;;;11.13;96.68;97939.94;5009989;28;20376;-44
2023/03/22 00:22:59;;;;;;;0.30;0.20;;;;;;;11.14;96.85;97924.91;5007304;28;20069;-43
2023/03/22 00:25:27;;;;;;;2.35;0.30;;;;;;;11.13;96.92;97933.59;5008791;28;20464;-43
2023/03/22 00:27:56;;;;;;;0.65;0.43;;;;;;;11.12;97.13;97932.81;4990536;28;20058;-44
2023/03/22 00:30:22;;;;;;;1.33;0.30;;;;;;;11.10;97.13;97929.69;5009230;28;20419;-44
2023/03/22 00:32:49;;;;;;;2.85;0.50;;;;;;;11.11;97.21;97942.34;5008024;28;20049;-45
2023/03/22 00:35:16;;;;;;;0.80;0.35;;;;;;;11.12;97.14;97937.59;5009483;28;20399;-51
2023/03/22 00:37:42;;;;;;;1.52;0.50;;;;;;;11.11;97.04;97928.50;5007851;28;20143;-44
2023/03/22 00:40:13;;;;;;;6.70;1.17;;;;;;;11.11;97.12;97950.66;5007716;28;20050;-44
2023/03/22 00:42:41;;;;;;;4.75;0.90;;;;;;;11.13;96.92;97952.97;4997054;28;20057;-43
2023/03/22 00:45:10;;;;;;;3.75;0.60;;;;;;;11.15;96.96;97967.19;5006373;28;20055;-46
2023/03/22 00:47:37;;;;;;;2.85;0.50;;;;;;;11.14;97.09;97969.19;5006010;28;20042;-43
2023/03/22 00:50:05;;;;;;;3.42;0.50;;;;;;;11.12;97.04;97960.50;5004268;28;20042;-43
2023/03/22 00:52:31;;;;;;;1.58;0.43;;;;;;;11.08;97.03;97987.47;5009241;28;20046;-44
2023/03/22 00:54:58;;;;;;;1.67;0.50;;;;;;;11.05;97.47;97980.00;5006226;28;20476;-44
2023/03/22 00:57:25;;;;;;;2.13;0.55;;;;;;;11.03;97.32;97996.25;5008226;28;20054;-46
2023/03/22 00:59:52;;;;;;;3.25;0.60;;;;;;;11.01;97.34;97987.56;4990677;28;20041;-44
2023/03/22 01:02:19;;;;;;;3.33;0.73;;;;;;;10.98;97.25;98000.25;5009237;28;20100;-44
2023/03/22 01:04:46;;;;;;;1.30;0.43;;;;;;;10.95;97.21;97997.53;5010751;28;20054;-47
2023/03/22 01:07:17;;;;;;;2.50;0.93;;;;;;;10.89;96.16;98018.53;5009183;28;20125;-45
2023/03/22 01:09:44;;;;;;;1.90;0.82;;;;;;;10.84;95.19;98016.22;5010838;28;20113;-44
2023/03/22 01:12:11;;;;;;;5.38;1.65;;;;;;;10.72;92.51;98058.28;5010450;28;20050;-47
2023/03/22 01:14:38;;;;;;;7.47;1.13;;;;;;;10.65;91.27;98041.75;5010090;28;20081;-44
2023/03/22 01:17:06;;;;;;;7.55;1.20;;;;;;;10.56;90.31;98060.81;5005805;28;20062;-43
2023/03/22 01:19:35;;;;;;;8.15;1.90;;;;;;;10.45;89.44;98079.50;5006788;28;20038;-44
2023/03/22 01:22:04;;;;;;;5.10;1.50;;;;;;;10.35;89.18;98081.94;5009970;28;20054;-43
2023/03/22 01:24:31;;;;;;;3.22;1.17;;;;;;;10.25;89.01;98090.31;5010231;28;20064;-43
2023/03/22 01:26:57;;;;;;;8.13;1.90;;;;;;;10.13;88.44;98113.72;5009047;28;20133;-48
2023/03/22 01:29:25;;;;;;;13.85;2.08;;;;;;;10.04;87.56;98124.41;5009909;28;20038;-43
2023/03/22 01:31:51;;;;;;;11.57;2.78;;;;;;;9.94;86.84;98111.44;5009373;28;20133;-46
2023/03/22 01:34:18;;;;;;;11.93;2.65;;;;;;;9.89;86.56;98117.41;5007926;28;20133;-45
2023/03/22 01:36:45;;;;;;;11.82;2.65;;;;;;;9.84;86.16;98120.59;5008553;28;20052;-43
2023/03/22 01:39:12;;;;;;;20.70;5.70;;;;;;;9.77;85.68;98115.09;5008687;28;20601;-43
2023/03/22 01:41:39;;;;;;;18.33;3.17;;;;;;;9.71;85.42;98112.00;5008312;28;20054;-43
2023/03/22 01:44:22;;;;;;;9.60;2.35;;;;;;;9.65;85.09;98115.56;5007750;28;20041;-47
2023/03/22 01:46:50;;;;;;;9.85;2.65;;;;;;;9.58;85.34;98129.41;5003834;28;20957;-43
2023/03/22 01:49:33;;;;;;;18.73;3.15;;;;;;;9.53;84.92;98140.88;5007983;28;20388;-47
2023/03/22 01:52:06;;;;;;;17.35;4.53;;;;;;;9.47;84.47;98145.25;5005873;28;20056;-43
2023/03/22 01:54:37;;;;;;;21.83;4.65;;;;;;;9.38;83.75;98144.88;5002278;28;20508;-43
2023/03/22 01:57:05;;;;;;;13.60;3.65;;;;;;;9.31;83.04;98158.72;5008272;28;20029;-43
2023/03/22 01:59:31;;;;;;;20.90;3.13;;;;;;;9.21;82.22;98145.75;5006641;28;20050;-44
2023/03/22 02:02:04;;;;;;;15.32;3.33;;;;;;;9.15;81.89;98156.41;5008914;28;20145;-43
2023/03/22 02:04:33;;;;;;;;;;;;;;;9.07;81.18;98163.13;4992221;28;20041;-43
2023/03/22 02:07:08;;;;;;;11.60;2.88;;;;;;;8.96;80.96;98176.94;5008570;28;20303;-44
2023/03/22 02:09:40;;;;;;;30.13;5.00;;;;;;;8.89;80.63;98176.94;5006845;28;20473;-45
2023/03/22 02:12:12;;;;;;;13.77;2.88;;;;;;;8.84;79.92;98193.88;5000113;28;20049;-43
2023/03/22 02:14:43;;;;;;;10.38;2.13;;;;;;;8.78;79.84;98202.97;5008971;28;20568;-43
2023/03/22 02:17:15;;;;;;;13.82;2.85;;;;;;;8.72;79.33;98197.06;5008601;28;20056;-44
2023/03/22 02:19:45;;;;;;;;;;;;;;;8.67;78.60;98202.19;5009817;28;20056;-48
2023/03/22 02:22:37;;;;;;;9.85;2.95;;;;;;;8.60;78.89;98214.00;5008909;28;19926;-43
2023/03/22 02:25:19;;;;;;;;;;;;;;;8.53;78.56;98211.22;5009116;28;20046;-43
2023/03/22 02:28:24;;;;;;;11.70;3.03;;;;;;;8.46;79.11;98217.53;5007998;28;20032;-43
2023/03/22 02:30:54;;;;;;;15.90;4.78;;;;;;;8.41;79.25;98233.69;5004447;28;20507;-43
2023/03/22 02:33:34;;;;;;;20.58;4.10;;;;;;;8.35;79.26;98226.97;5008595;28;20053;-44
2023/03/22 02:36:30;;;;;;;16.80;3.92;;;;;;;8.27;78.18;98217.91;4995614;28;20523;-47
2023/03/22 02:39:33;;;;;;;17.05;3.17;;;;;;;8.24;78.31;98237.94;5000142;28;20086;-43
2023/03/22 02:42:16;;;;;;;16.85;3.78;;;;;;;8.19;78.55;98234.78;4967405;28;20038;-43
2023/03/22 02:45:17;;;;;;;23.25;4.07;;;;;;;8.14;78.52;98237.91;5008669;28;20052;-43
2023/03/22 02:47:56;;;;;;;17.85;3.72;;;;;;;8.09;78.57;98235.53;5008276;28;20132;-43
2023/03/22 02:50:28;;;;;;;13.95;3.13;;;;;;;8.04;78.49;98236.72;5008600;28;20092;-43
2023/03/22 02:53:01;;;;;;;17.45;4.28;;;;;;;7.98;78.13;98249.28;5000711;28;20049;-50
2023/03/22 02:55:27;;;;;;;17.90;4.47;;;;;;;7.97;78.45;98275.25;5002324;28;20046;-44
2023/03/22 02:58:02;;;;;;;26.23;6.05;;;;;;;7.92;78.27;98276.41;5010637;28;20053;-48
2023/03/22 03:03:10;;;;;;;14.07;3.08;;;;;;;7.87;78.24;98287.00;4990364;28;20046;-45
2023/03/22 03:05:42;;;;;;;9.25;3.80;;;;;;;7.83;78.36;98289.78;4992617;28;20144;-44
2023/03/22 03:08:11;;;;;;;17.25;4.53;;;;;;;7.77;78.11;98291.31;5007856;28;20043;-44
2023/03/22 03:10:40;;;;;;;15.32;2.50;;;;;;;7.74;78.08;98294.84;4993052;28;20539;-43
2023/03/22 03:13:12;;;;;;;22.70;4.07;;;;;;;7.71;77.96;98289.28;4993239;28;20098;-44
2023/03/22 03:15:42;;;;;;;25.45;4.28;;;;;;;7.67;77.77;98305.03;4992454;28;20527;-44
2023/03/22 03:18:21;;;;;;;18.70;3.22;;;;;;;7.66;77.57;98309.72;5000240;28;20133;-43
2023/03/22 03:20:53;;;;;;;16.05;2.80;;;;;;;7.61;77.71;98310.09;4992699;28;20089;-43
2023/03/22 03:23:39;;;;;;;15.90;4.05;;;;;;;7.58;77.71;98330.13;4992681;28;20077;-44
2023/03/22 03:26:43;;;;;;;18.65;3.55;;;;;;;7.55;77.85;98314.38;4999389;28;20499;-47
2023/03/22 03:29:24;;;;;;;17.45;3.25;;;;;;;7.51;77.83;98329.31;4988663;28;20050;-43
2023/03/22 03:32:06;;;;;;;19.73;4.68;;;;;;;7.50;78.03;98319.47;4992550;28;20491;-47
2023/03/22 03:34:48;;;;;;;19.42;4.22;;;;;;;7.44;78.05;98330.03;4989447;28;20069;-44
2023/03/22 03:37:38;;;;;;;18.27;2.88;;;;;;;7.42;78.20;98332.38;4982783;28;20066;-44
2023/03/22 03:40:11;;;;;;;16.60;3.72;;;;;;;7.38;78.23;98334.34;4987119;28;20050;-45
2023/03/22 03:42:44;;;;;;;13.02;3.13;;;;;;;7.34;78.25;98339.00;4983255;28;20062;-43
2023/03/22 03:45:13;;;;;;;13.90;2.65;;;;;;;7.29;78.19;98344.88;4989933;28;20062;-44
2023/03/22 03:47:43;;;;;;;15.13;3.20;;;;;;;7.27;78.13;98358.22;4987929;28;20145;-43
2023/03/22 03:50:14;;;;;;;16.45;3.47;;;;;;;7.24;77.96;98359.00;4990019;28;20440;-43
2023/03/22 03:52:41;;;;;;;18.25;2.42;;;;;;;7.23;78.00;98358.19;4984749;28;20396;-43
2023/03/22 03:55:09;;;;;;;15.60;2.75;;;;;;;7.20;77.89;98369.19;4988800;28;20050;-43
2023/03/22 03:57:35;;;;;;;10.70;2.47;;;;;;;7.18;77.96;98379.78;4988339;28;20070;-44
2023/03/22 04:00:04;;;;;;;20.75;3.72;;;;;;;7.14;77.58;98370.72;4990909;28;20126;-49
2023/03/22 04:02:31;;;;;;;22.40;6.07;;;;;;;7.12;77.66;98378.56;4989870;28;20058;-49
2023/03/22 04:04:57;;;;;;;21.85;5.43;;;;;;;7.11;77.73;98382.47;4986972;28;20053;-44
2023/03/22 04:07:24;;;;;;;13.38;2.75;;;;;;;7.07;77.60;98392.66;4978630;28;20046;-45
2023/03/22 04:09:51;;;;;;;13.60;3.00;;;;;;;7.07;77.60;98389.91;4986998;28;20042;-44
2023/03/22 04:12:18;;;;;;;19.35;5.18;;;;;;;7.03;77.51;98391.81;4991210;28;20403;-44
2023/03/22 04:14:46;;;;;;;15.45;2.80;;;;;;;6.99;77.47;98399.25;4988709;28;20112;-44
2023/03/22 04:17:13;;;;;;;14.50;3.30;;;;;;;6.96;77.37;98387.06;4986336;28;20050;-44
2023/03/22 04:19:41;;;;;;;17.48;2.88;;;;;;;6.94;77.10;98411.38;4985237;28;20065;-44
2023/03/22 04:22:13;;;;;;;11.68;2.55;;;;;;;6.93;77.09;98414.53;4983843;28;20093;-43
2023/03/22 04:24:40;;;;;;;;;;;;;;;6.92;76.94;98410.19;4989353;28;20046;-44
2023/03/22 04:27:07;;;;;;;12.88;2.47;;;;;;;6.89;77.17;98405.44;4989111;28;19922;-43
2023/03/22 04:29:35;;;;;;;12.35;2.75;;;;;;;6.87;77.34;98432.53;4991095;28;20046;-47
2023/03/22 04:32:02;;;;;;;14.63;2.65;;;;;;;6.85;77.10;98421.13;4987043;28;20043;-43
2023/03/22 04:34:30;;;;;;;11.98;2.63;;;;;;;6.85;77.27;98429.38;4991165;28;20057;-43
2023/03/22 04:36:57;;;;;;;13.75;3.15;;;;;;;6.81;77.18;98429.31;4984320;28;20108;-43
2023/03/22 04:39:23;;;;;;;15.98;3.33;;;;;;;6.80;77.34;98426.97;4984122;28;20042;-44
2023/03/22 04:41:50;;;;;;;12.07;2.42;;;;;;;6.78;77.19;98432.06;4984366;28;20141;-48
2023/03/22 04:44:17;;;;;;;16.25;2.30;;;;;;;6.74;76.93;98441.03;4986461;28;20042;-44
2023/03/22 04:46:43;;;;;;;14.30;2.60;;;;;;;6.73;76.93;98439.44;4986074;28;20132;-44
2023/03/22 04:49:10;;;;;;;13.30;2.75;;;;;;;6.72;77.05;98442.59;4990255;28;20076;-44
2023/03/22 04:51:37;;;;;;;17.92;2.83;;;;;;;6.72;77.02;98437.84;4988525;28;20042;-44
2023/03/22 04:54:04;;;;;;;11.70;3.30;;;;;;;6.70;76.85;98445.69;4956077;28;20134;-44
2023/03/22 04:56:30;;;;;;;19.58;2.88;;;;;;;6.68;76.97;98455.50;4968423;28;20065;-44
2023/03/22 04:58:57;;;;;;;12.35;3.05;;;;;;;6.67;76.95;98462.94;4990443;28;20066;-44
2023/03/22 05:01:25;;;;;;;9.82;2.45;;;;;;;6.65;76.77;98454.28;4984047;28;20070;-44
2023/03/22 05:03:52;;;;;;;10.35;3.88;;;;;;;6.63;76.91;98466.81;4972049;28;20039;-44
2023/03/22 05:06:18;;;;;;;9.50;1.85;;;;;;;6.63;76.81;98462.13;4971117;28;20053;-44
2023/03/22 05:08:45;;;;;;;15.85;2.58;;;;;;;6.64;77.02;98469.22;4970339;28;20086;-44
2023/03/22 05:11:15;;;;;;;14.27;2.95;;;;;;;6.63;77.03;98472.31;4971183;28;20050;-44
2023/03/22 05:13:42;;;;;;;9.20;2.90;;;;;;;6.62;77.03;98482.53;4971535;28;20047;-44
2023/03/22 05:16:09;;;;;;;15.38;2.40;;;;;;;6.63;77.14;98473.13;4971100;28;20495;-44
2023/03/22 05:18:41;;;;;;;8.88;2.45;;;;;;;6.62;77.36;98481.72;4970975;28;20055;-44
2023/03/22 05:21:20;;;;;;;9.02;2.58;;;;;;;6.63;77.29;98475.06;4970295;28;20050;-44
2023/03/22 05:23:48;;;;;;;11.70;2.28;;;;;;;6.63;77.08;98475.88;4970137;28;20047;-44
2023/03/22 05:26:19;;;;;;;9.35;2.33;;;;;;;6.64;77.29;98493.16;4963721;28;20046;-44
2023/03/22 05:28:46;;;;;;;8.27;2.30;;;;;;;6.62;77.42;98493.50;4962650;28;20047;-44
2023/03/22 05:31:13;;;;;;;12.20;2.58;;;;;;;6.60;77.44;98486.81;4962585;28;20057;-46
2023/03/22 05:33:40;;;;;;;16.38;3.05;;;;;;;6.58;77.42;98498.19;4970123;28;20043;-44
2023/03/22 05:36:10;;;;;;;16.55;2.95;;;;;;;6.57;77.52;98491.09;4966726;28;20053;-44
2023/03/22 05:38:37;;;;;;;12.98;3.08;;;;;;;6.55;77.69;98493.44;4966062;28;20049;-44
2023/03/22 05:41:04;;;;;;;20.67;3.10;;;;;;;6.54;77.82;98504.81;4953704;28;20070;-44
2023/03/22 05:43:31;;;;;;;11.18;3.15;;;;;;;6.53;77.84;98490.28;4970635;28;20061;-44
2023/03/22 05:45:58;;;;;;;10.20;2.65;;;;;;;6.53;78.15;98503.22;4965955;28;20400;-44
2023/03/22 05:48:24;;;;;;;18.48;2.67;;;;;;;6.51;78.23;98505.56;4965692;28;20039;-44
2023/03/22 05:50:51;;;;;;;20.02;4.70;;;;;;;6.51;78.44;98497.31;4968237;28;20471;-44
2023/03/22 05:53:18;;;;;;;27.23;3.28;;;;;;;6.49;78.44;98488.63;4950127;28;20101;-44
2023/03/22 05:55:45;;;;;;;21.48;4.90;;;;;;;6.50;78.48;98496.50;4951622;28;20484;-46
2023/03/22 05:58:17;;;;;;;17.33;2.88;;;;;;;6.50;78.36;98490.22;4965998;28;20512;-48
2023/03/22 06:00:48;;;;;;;19.92;4.32;;;;;;;6.49;78.60;98494.91;4968164;28;20705;-44
2023/03/22 06:03:15;;;;;;;19.75;5.45;;;;;;;6.49;78.59;98494.91;4985220;28;20056;-44
2023/03/22 06:05:42;;;;;;;13.95;2.75;;;;;;;6.49;78.43;98489.41;4986348;28;20057;-44
2023/03/22 06:08:09;;;;;;;13.80;2.70;;;;;;;6.49;78.43;98494.91;4988263;28;20077;-44
2023/03/22 06:10:35;;;;;;;18.27;3.83;;;;;;;6.49;78.50;98489.41;4989750;28;20056;-44
2023/03/22 06:13:02;;;;;;;10.05;3.55;;;;;;;6.46;78.48;98484.66;4989398;28;20049;-44
2023/03/22 06:15:30;;;;;;;14.65;3.35;;;;;;;6.44;78.18;98487.00;4989811;28;20173;-44
2023/03/22 06:17:57;;;;;;;17.55;3.55;;;;;;;6.43;78.40;98496.44;4988467;28;20050;-44
2023/03/22 06:20:24;;;;;;;13.52;3.72;;;;;;;6.45;78.17;98482.31;4989709;28;20046;-47
2023/03/22 06:22:51;;;;;;;14.02;3.70;;;;;;;6.45;78.03;98499.59;4989683;28;20456;-44
2023/03/22 06:25:17;;;;;;;20.67;3.22;;;;;;;6.47;78.14;98496.47;4989199;28;20096;-50
2023/03/22 06:27:44;;;;;;;19.88;4.05;;;;;;;6.46;78.10;98495.66;4988155;28;20058;-44
2023/03/22 06:30:11;;;;;;;15.93;3.03;;;;;;;6.45;78.11;98499.59;4989476;28;20050;-44
2023/03/22 06:32:38;;;;;;;16.60;3.47;;;;;;;6.44;78.12;98498.00;4989830;28;20049;-44
2023/03/22 06:35:05;;;;;;;17.55;3.08;;;;;;;6.43;78.17;98498.38;4989234;28;20050;-44
2023/03/22 06:37:32;;;;;;;25.08;3.80;;;;;;;6.42;78.12;98492.09;4988260;28;20563;-44
2023/03/22 06:39:59;;;;;;;19.30;3.63;;;;;;;6.43;78.10;98479.94;4986105;28;20042;-44
2023/03/22 06:42:25;;;;;;;10.50;2.85;;;;;;;6.46;78.16;98500.38;4983485;28;20409;-45
2023/03/22 06:44:52;;;;;;;17.33;4.20;;;;;;;6.47;77.93;98493.72;4987266;28;20495;-44
2023/03/22 06:47:19;;;;;;;12.10;3.00;;;;;;;6.48;77.90;98503.56;4986481;28;20484;-44
2023/03/22 06:49:45;;;;;;;14.00;2.72;;;;;;;6.49;77.87;98499.63;4985455;28;20054;-49
2023/03/22 06:52:12;;;;;;;17.75;4.55;;;;;;;6.49;77.80;98494.91;4981993;28;20125;-44
2023/03/22 06:54:39;;;;;;;21.88;3.42;;;;;;;6.51;77.94;98491.81;4981285;28;20145;-44
2023/03/22 06:57:06;;;;;;;19.15;3.80;;;;;;;6.53;77.90;98489.47;4968766;28;20100;-44
2023/03/22 06:59:33;;;;;;;12.15;3.30;;;;;;;6.55;77.84;98492.63;4984653;28;20176;-44
2023/03/22 07:02:00;;;;;;;19.17;3.45;;;;;;;6.58;77.76;98486.41;4982142;28;20051;-44
2023/03/22 07:04:27;;;;;;;16.20;3.10;;;;;;;6.58;77.78;98476.19;4986404;28;20049;-44
2023/03/22 07:06:55;;;;;;;16.83;4.00;;;;;;;6.60;78.04;98478.56;4988830;28;20062;-44
2023/03/22 07:09:23;;;;;;;14.15;2.88;;;;;;;6.61;77.93;98472.69;4982011;28;20061;-44
2023/03/22 07:11:50;;;;;;;17.05;3.05;;;;;;;6.64;78.04;98469.22;4985634;28;20050;-44
2023/03/22 07:14:17;;;;;;;14.75;2.90;;;;;;;6.66;77.91;98472.38;4967542;28;20077;-49
2023/03/22 07:16:43;;;;;;;15.05;3.45;;;;;;;6.69;77.86;98459.84;4983658;28;20408;-48
2023/03/22 07:19:10;;;;;;;17.95;3.40;;;;;;;6.72;77.83;98476.34;4984321;28;20070;-44
2023/03/22 07:21:37;;;;;;;20.98;4.72;;;;;;;6.75;77.94;98475.59;4986029;28;20042;-48
2023/03/22 07:24:05;;;;;;;17.83;3.10;;;;;;;6.79;77.92;98469.38;4986431;28;20042;-47
2023/03/22 07:26:32;;;;;;;11.48;3.10;;;;;;;6.81;77.97;98462.31;4984491;28;20046;-44
2023/03/22 07:28:58;;;;;;;14.57;3.28;;;;;;;6.85;77.88;98457.66;4982829;28;20060;-44
2023/03/22 07:31:25;;;;;;;13.32;3.97;;;;;;;6.87;77.67;98457.28;4977116;28;20046;-44
2023/03/22 07:33:52;;;;;;;29.33;5.32;;;;;;;6.90;77.77;98464.78;4985465;28;20057;-44
2023/03/22 07:36:22;;;;;;;19.00;5.00;;;;;;;6.93;77.80;98459.31;4967186;28;20528;-47
2023/03/22 07:38:50;;;;;;;18.30;4.28;;;;;;;6.98;77.80;98460.94;4985090;28;20046;-45
2023/03/22 07:41:17;;;;;;;16.88;4.13;;;;;;;7.02;77.67;98461.75;4989634;28;20575;-45
2023/03/22 07:43:44;;;;;;;15.90;3.85;;;;;;;7.06;77.51;98468.91;4973538;28;20034;-44
2023/03/22 07:46:24;;;;;;;21.23;4.05;;;;;;;7.11;77.12;98459.50;4992733;28;20526;-45
2023/03/22 07:48:50;;;;;;;31.23;6.35;;;;;;;7.16;77.35;98467.41;4991603;28;20066;-44
2023/03/22 07:51:18;;;;;;;15.82;2.45;;;;;;;7.20;76.96;98457.25;4992053;28;20149;-45
2023/03/22 07:53:44;;;;;;;19.90;2.95;;;;;;;7.24;76.92;98455.31;4992319;28;20070;-44
2023/03/22 07:56:13;;;;;;;21.52;5.45;;;;;;;7.28;76.79;98458.91;4992955;28;20065;-44
2023/03/22 07:58:39;;;;;;;19.58;5.88;;;;;;;7.31;76.62;98469.13;4986767;28;20074;-48
2023/03/22 08:01:07;;;;;;;14.20;3.20;;;;;;;7.30;76.28;98457.34;4984136;28;22082;-47
2023/03/22 08:03:36;;;;;;;20.33;3.88;;;;;;;7.32;76.26;98462.47;4972660;28;20492;-45
2023/03/22 08:06:06;;;;;;;17.20;3.80;;;;;;;7.35;76.46;98472.72;4970955;28;20142;-45
2023/03/22 08:08:35;;;;;;;16.67;3.92;;;;;;;7.39;76.25;98462.53;4958810;28;20051;-45
2023/03/22 08:11:06;;;;;;;16.38;3.00;;;;;;;7.47;76.34;98469.69;4963354;28;20165;-45
2023/03/22 08:13:33;;;;;;;24.08;3.67;;;;;;;7.53;76.08;98461.88;4966272;28;20089;-48
2023/03/22 08:16:01;;;;;;;18.23;3.53;;;;;;;7.57;76.11;98468.97;4962645;28;20047;-45
2023/03/22 08:18:27;;;;;;;18.02;4.30;;;;;;;7.60;75.98;98465.47;4962135;28;20051;-45
2023/03/22 08:20:56;;;;;;;16.75;2.90;;;;;;;7.63;75.75;98472.97;4960875;28;20051;-44
2023/03/22 08:23:24;;;;;;;14.82;3.42;;;;;;;7.69;76.07;98468.69;4962529;28;20066;-44
2023/03/22 08:26:06;;;;;;;19.05;3.58;;;;;;;7.71;75.99;98460.84;4960861;28;20039;-44
2023/03/22 08:28:33;;;;;;;16.23;3.05;;;;;;;7.75;75.93;98455.38;4959127;28;20400;-44
2023/03/22 08:31:00;;;;;;;12.60;3.08;;;;;;;7.80;75.63;98475.09;4956343;28;20568;-47
2023/03/22 08:33:27;;;;;;;19.08;3.70;;;;;;;7.86;75.64;98459.75;4945530;28;20413;-50
2023/03/22 08:36:05;;;;;;;16.40;3.10;;;;;;;7.92;75.26;98461.00;4957347;28;20031;-44
2023/03/22 08:38:32;;;;;;;20.15;4.70;;;;;;;7.99;75.30;98461.03;4960632;28;20085;-44
2023/03/22 08:40:58;;;;;;;24.83;3.25;;;;;;;8.08;75.44;98454.41;4962268;28;20047;-45
2023/03/22 08:43:25;;;;;;;19.33;3.75;;;;;;;8.15;75.28;98451.72;4967968;28;20047;-44
2023/03/22 08:45:52;;;;;;;17.08;3.80;;;;;;;8.23;75.25;98451.38;4959928;28;20051;-44
2023/03/22 08:48:19;;;;;;;19.48;5.30;;;;;;;8.32;75.33;98435.28;4964150;28;20070;-45
2023/03/22 08:50:46;;;;;;;15.32;3.33;;;;;;;8.43;75.25;98469.22;4962459;28;20496;-45
2023/03/22 08:53:12;;;;;;;17.75;3.58;;;;;;;8.53;75.22;98445.63;4963019;28;20460;-45
2023/03/22 08:55:43;;;;;;;32.33;5.10;;;;;;;8.69;75.38;98442.53;4957364;28;20054;-48
2023/03/22 08:58:15;;;;;;;11.85;2.70;;;;;;;8.88;75.16;98451.28;4957529;28;20126;-45
2023/03/22 09:00:42;;;;;;;21.70;5.07;;;;;;;9.02;75.05;98439.50;4962850;28;20046;-45
2023/03/22 09:03:15;;;;;;;11.80;3.22;;;;;;;9.04;74.59;98437.94;4943903;28;20133;-46
2023/03/22 09:05:42;;;;;;;19.08;3.60;;;;;;;9.08;74.90;98438.72;4964495;28;20439;-45
2023/03/22 09:08:09;;;;;;;15.35;3.45;;;;;;;9.18;75.21;98440.72;4963645;28;20066;-44
2023/03/22 09:10:51;;;;;;;14.32;3.33;;;;;;;9.36;75.55;98434.44;4958917;28;20057;-45
2023/03/22 09:13:18;;;;;;;23.50;3.35;;;;;;;9.62;76.39;98428.50;4947974;28;20418;-46
2023/03/22 09:15:46;;;;;;;16.58;3.65;;;;;;;9.88;76.62;98419.81;4963566;28;20967;-45
2023/03/22 09:18:13;;;;;;;25.83;5.40;;;;;;;10.16;76.54;98430.88;4960330;28;20124;-45
2023/03/22 09:20:41;;;;;;;17.35;3.67;;;;;;;10.66;76.02;98425.97;4962851;28;20436;-45
2023/03/22 09:23:08;;;;;;;19.85;4.15;;;;;;;11.25;75.34;98412.97;4951099;28;20039;-45
2023/03/22 09:25:35;;;;;;;19.85;3.47;;;;;;;12.19;73.71;98409.81;4969399;28;20047;-45
2023/03/22 09:28:02;;;;;;;17.23;3.67;;;;;;;12.88;71.49;98416.91;4959765;28;20106;-47
2023/03/22 09:30:30;;;;;;;13.85;3.97;;;;;;;13.38;69.79;98418.59;4962359;28;20548;-47
2023/03/22 09:32:56;;;;;;;13.73;3.58;;;;;;;13.48;67.45;98422.41;4958865;28;20059;-48
2023/03/22 09:35:23;;;;;;;18.38;4.00;;;;;;;12.77;66.16;98411.50;4954708;28;20507;-45
2023/03/22 09:37:52;;;;;;;17.70;3.15;;;;;;;12.01;66.22;98409.19;4962094;28;20049;-45
2023/03/22 09:40:20;;;;;;;20.25;3.38;;;;;;;11.73;66.93;98403.94;4963711;28;20416;-45
2023/03/22 09:42:51;;;;;;;16.33;4.70;;;;;;;11.71;66.55;98417.38;4959443;28;20047;-46
2023/03/22 09:45:26;;;;;;;21.85;3.53;;;;;;;11.50;65.48;98418.31;4962480;28;20058;-45
2023/03/22 09:47:55;;;;;;;16.13;3.10;;;;;;;11.16;65.88;98418.19;4973228;28;20049;-46
2023/03/22 09:50:28;;;;;;;18.40;4.15;;;;;;;11.17;66.18;98405.91;4964415;28;20042;-45
2023/03/22 09:52:56;;;;;;;19.27;3.78;;;;;;;11.28;65.68;98423.22;4968537;28;20057;-45
2023/03/22 09:55:23;;;;;;;14.23;3.22;;;;;;;11.08;65.11;98416.66;4963392;28;20544;-45
2023/03/22 09:58:05;;;;;;;14.77;4.13;;;;;;;10.67;65.21;98416.44;4970290;28;20042;-45
2023/03/22 10:00:41;;;;;;;22.20;4.18;;;;;;;10.49;65.75;98420.47;4960446;28;20488;-48
2023/03/22 10:03:20;;;;;;;19.20;3.55;;;;;;;10.49;65.89;98415.75;4963402;28;20059;-48
2023/03/22 10:06:05;;;;;;;12.15;3.63;;;;;;;10.42;65.51;98431.56;4967003;28;20412;-45
2023/03/22 10:08:32;;;;;;;14.65;4.32;;;;;;;10.20;65.90;98431.63;4961141;28;20390;-47
2023/03/22 10:11:00;;;;;;;20.30;3.60;;;;;;;10.05;66.25;98418.22;4972633;28;20080;-45
2023/03/22 10:13:45;;;;;;;33.33;6.70;;;;;;;9.99;66.72;98414.25;4966050;28;20043;-45
2023/03/22 10:16:24;;;;;;;17.63;4.53;;;;;;;10.15;67.21;98418.22;4961103;28;20085;-47
2023/03/22 10:18:56;;;;;;;24.17;4.32;;;;;;;11.06;66.07;98413.50;4962968;28;20050;-45
2023/03/22 10:21:25;;;;;;;14.55;4.53;;;;;;;12.31;64.26;98411.28;4962913;28;20082;-49
2023/03/22 10:23:59;;;;;;;15.95;4.05;;;;;;;13.42;62.44;98436.00;4961950;28;20556;-45
2023/03/22 10:26:31;;;;;;;17.52;3.58;;;;;;;13.98;61.36;98428.72;4964696;28;20053;-45
2023/03/22 10:29:02;;;;;;;19.65;5.45;;;;;;;14.14;61.14;98418.94;4963400;28;20512;-45
2023/03/22 10:31:31;;;;;;;24.52;4.75;;;;;;;14.53;61.14;98419.78;4951313;28;20145;-45
2023/03/22 10:34:05;;;;;;;15.50;4.57;;;;;;;15.24;60.20;98407.94;4962887;28;20493;-45
2023/03/22 10:36:37;;;;;;;14.63;3.13;;;;;;;15.81;58.58;98412.19;4962875;28;20055;-45
2023/03/22 10:39:11;;;;;;;23.05;5.03;;;;;;;16.17;57.62;98418.44;4965363;28;20131;-49
2023/03/22 10:41:40;;;;;;;12.90;2.70;;;;;;;16.19;56.63;98413.19;4970223;28;20046;-45
2023/03/22 10:44:07;;;;;;;23.30;5.35;;;;;;;15.93;56.47;98407.91;4967139;28;20055;-45
2023/03/22 10:46:38;;;;;;;12.90;2.92;;;;;;;15.93;55.96;98422.66;4965193;28;20057;-47
2023/03/22 10:49:06;;;;;;;17.42;3.70;;;;;;;16.09;55.06;98400.31;4969527;28;20131;-46
2023/03/22 10:51:39;;;;;;;15.90;3.05;;;;;;;16.04;54.57;98408.41;4962144;28;20094;-53
2023/03/22 10:54:12;;;;;;;12.95;3.45;;;;;;;15.89;54.54;98398.81;4969026;28;20054;-45
2023/03/22 10:56:39;;;;;;;12.23;3.67;;;;;;;15.89;54.56;98380.06;4963152;28;20078;-45
2023/03/22 10:59:06;;;;;;;19.73;3.65;;;;;;;15.50;54.83;98405.38;4961809;28;20046;-45
2023/03/22 11:01:38;;;;;;;13.60;2.90;;;;;;;15.11;55.32;98398.69;4968765;28;20046;-49
2023/03/22 11:04:14;;;;;;;22.25;4.53;;;;;;;14.90;55.41;98395.56;4992706;28;20046;-46
2023/03/22 11:06:52;;;;;;;13.88;4.00;;;;;;;14.17;56.65;98384.69;4983274;28;20081;-45
2023/03/22 11:09:23;;;;;;;16.90;3.60;;;;;;;13.56;58.42;98375.81;4987218;28;20039;-49
2023/03/22 11:11:52;;;;;;;16.10;3.70;;;;;;;13.31;59.09;98379.03;4973909;28;20480;-45
2023/03/22 11:14:26;;;;;;;20.23;5.40;;;;;;;13.25;59.35;98369.59;4986564;28;20130;-45
2023/03/22 11:17:05;;;;;;;13.02;2.83;;;;;;;13.42;59.54;98379.66;4977429;28;20046;-45
2023/03/22 11:19:38;;;;;;;12.05;3.08;;;;;;;13.33;59.79;98376.59;4987833;28;20092;-47
2023/03/22 11:22:21;;;;;;;14.73;3.00;;;;;;;13.13;59.91;98373.72;4991825;28;20081;-45
2023/03/22 11:24:50;;;;;;;15.63;3.95;;;;;;;12.88;60.53;98369.72;4989369;28;20058;-45
2023/03/22 11:27:24;;;;;;;18.38;4.47;;;;;;;12.75;61.06;98373.06;4990197;28;20051;-44
2023/03/22 11:29:56;;;;;;;8.30;2.97;;;;;;;12.62;61.28;98377.59;4986031;28;20046;-49
2023/03/22 11:32:26;;;;;;;15.30;3.38;;;;;;;12.41;61.55;98366.75;4990933;28;20038;-45
2023/03/22 11:35:03;;;;;;;13.27;2.95;;;;;;;12.28;62.27;98360.19;4984535;28;20109;-47
2023/03/22 11:37:30;;;;;;;13.75;3.10;;;;;;;12.21;62.60;98343.59;4991179;28;20053;-45
2023/03/22 11:40:03;;;;;;;13.43;3.00;;;;;;;12.20;63.25;98339.25;4988707;28;20088;-45
2023/03/22 11:42:33;;;;;;;15.93;2.75;;;;;;;12.16;63.71;98325.44;4982947;28;20061;-48
2023/03/22 11:44:59;;;;;;;14.48;2.95;;;;;;;12.14;63.70;98341.72;4989011;28;20042;-47
2023/03/22 11:47:32;;;;;;;16.90;3.35;;;;;;;12.10;63.59;98329.06;4994255;28;20403;-45
2023/03/22 11:50:04;;;;;;;11.45;2.67;;;;;;;11.95;63.81;98311.00;4986227;28;20452;-45